createdAt,value
2023-04-11T00:00:07.142Z,26.50
2023-04-11T00:00:46.258Z,93.32
2023-04-11T00:01:18.434Z,20.85
2023-04-11T00:01:51.513Z,22.27
2023-04-11T00:02:26.473Z,23.73
2023-04-11T00:03:00.553Z,25.17
2023-04-11T00:03:33.196Z,39.45
2023-04-11T00:04:11.253Z,23.73
2023-04-11T00:04:44.040Z,40.42
2023-04-11T00:05:16.285Z,26.42
2023-04-11T00:05:51.243Z,24.23
2023-04-11T00:06:24.023Z,31.48
2023-04-11T00:06:57.084Z,22.25
2023-04-11T00:07:34.892Z,23.13
2023-04-11T00:08:07.286Z,26.55
2023-04-11T00:08:44.534Z,32.72
2023-04-11T00:09:17.130Z,22.58
2023-04-11T00:09:49.324Z,38.92
2023-04-11T00:10:24.144Z,21.65
2023-04-11T00:10:56.329Z,21.70
2023-04-11T00:11:28.762Z,24.08
2023-04-11T00:12:04.914Z,20.55
2023-04-11T00:12:37.135Z,35.97
2023-04-11T00:13:12.359Z,25.75
2023-04-11T00:13:48.827Z,28.58
2023-04-11T00:14:23.668Z,18.70
2023-04-11T00:14:56.084Z,24.85
2023-04-11T00:15:32.804Z,26.58
2023-04-11T00:16:08.984Z,26.35
2023-04-11T00:16:41.734Z,32.00
2023-04-11T00:17:17.843Z,20.63
2023-04-11T00:17:50.114Z,13.63
2023-04-11T00:18:22.631Z,27.27
2023-04-11T00:18:57.512Z,38.78
2023-04-11T00:19:30.909Z,32.55
2023-04-11T00:20:08.249Z,32.03
2023-04-11T00:20:43.416Z,28.95
2023-04-11T00:21:15.625Z,25.48
2023-04-11T00:21:47.938Z,19.65
2023-04-11T00:22:24.414Z,34.05
2023-04-11T00:22:58.556Z,21.92
2023-04-11T00:23:30.738Z,27.67
2023-04-11T00:24:05.455Z,24.10
2023-04-11T00:24:37.991Z,46.47
2023-04-11T00:25:10.432Z,27.27
2023-04-11T00:25:48.002Z,39.45
2023-04-11T00:26:24.440Z,21.80
2023-04-11T00:26:57.091Z,35.75
2023-04-11T00:27:32.049Z,29.48
2023-04-11T00:28:04.546Z,22.30
2023-04-11T00:28:36.725Z,38.35
2023-04-11T00:29:11.484Z,18.58
2023-04-11T00:29:46.255Z,35.28
2023-04-11T00:30:18.644Z,22.83
2023-04-11T00:30:53.430Z,23.48
2023-04-11T00:31:25.698Z,25.42
2023-04-11T00:32:01.229Z,35.95
2023-04-11T00:32:33.916Z,44.45
2023-04-11T00:33:09.330Z,28.85
2023-04-11T00:33:42.763Z,45.78
2023-04-11T00:34:18.535Z,40.20
2023-04-11T00:34:54.322Z,39.15
2023-04-11T00:35:34.765Z,46.35
2023-04-11T00:36:08.424Z,32.65
2023-04-11T00:36:43.527Z,46.30
2023-04-11T00:37:16.083Z,35.42
2023-04-11T00:37:51.614Z,25.98
2023-04-11T00:38:26.393Z,20.15
2023-04-11T00:38:58.748Z,24.48
2023-04-11T00:39:33.958Z,32.03
2023-04-11T00:40:12.385Z,25.27
2023-04-11T00:40:47.883Z,28.50
2023-04-11T00:41:23.264Z,40.72
2023-04-11T00:42:06.613Z,41.88
2023-04-11T00:42:38.854Z,41.10
2023-04-11T00:43:11.094Z,32.90
2023-04-11T00:43:45.862Z,37.83
2023-04-11T00:44:18.112Z,29.73
2023-04-11T00:44:53.062Z,29.90
2023-04-11T00:45:27.994Z,28.15
2023-04-11T00:46:01.164Z,30.23
2023-04-11T00:46:36.829Z,45.38
2023-04-11T00:47:09.773Z,25.77
2023-04-11T00:47:42.515Z,33.45
2023-04-11T00:48:17.954Z,20.35
2023-04-11T00:48:50.154Z,32.10
2023-04-11T00:49:23.930Z,23.15
2023-04-11T00:49:58.841Z,30.48
2023-04-11T00:50:31.878Z,35.40
2023-04-11T00:51:04.349Z,42.70
2023-04-11T00:51:39.340Z,26.88
2023-04-11T00:52:13.018Z,30.20
2023-04-11T00:52:48.232Z,27.67
2023-04-11T00:53:23.878Z,36.85
2023-04-11T00:53:56.131Z,26.17
2023-04-11T00:54:30.324Z,32.65
2023-04-11T00:55:06.617Z,24.58
2023-04-11T00:55:39.077Z,30.27
2023-04-11T00:56:14.152Z,25.77
2023-04-11T00:56:46.339Z,32.63
2023-04-11T00:57:19.278Z,21.02
2023-04-11T00:57:56.700Z,31.98
2023-04-11T00:58:29.483Z,31.25
2023-04-11T00:59:01.812Z,29.98
2023-04-11T00:59:34.198Z,29.95
2023-04-11T01:00:12.823Z,25.40
2023-04-11T01:00:50.147Z,34.15
2023-04-11T01:01:25.491Z,25.30
2023-04-11T01:01:58.933Z,26.13
2023-04-11T01:02:33.696Z,68.13
2023-04-11T01:03:08.642Z,20.88
2023-04-11T01:03:41.592Z,40.83
2023-04-11T01:04:13.973Z,19.83
2023-04-11T01:04:49.456Z,39.50
2023-04-11T01:05:22.048Z,36.15
2023-04-11T01:05:55.204Z,33.53
2023-04-11T01:06:31.636Z,29.38
2023-04-11T01:07:06.467Z,54.50
2023-04-11T01:07:42.994Z,30.80
2023-04-11T01:08:18.786Z,28.92
2023-04-11T01:08:51.172Z,20.77
2023-04-11T01:09:26.116Z,32.67
2023-04-11T01:10:03.077Z,38.00
2023-04-11T01:10:35.541Z,41.80
2023-04-11T01:11:09.260Z,83.68
2023-04-11T01:11:46.763Z,38.38
2023-04-11T01:12:21.816Z,35.83
2023-04-11T01:12:54.211Z,21.65
2023-04-11T01:13:29.295Z,34.45
2023-04-11T01:14:01.939Z,34.00
2023-04-11T01:14:34.390Z,35.55
2023-04-11T01:15:12.865Z,32.65
2023-04-11T01:15:45.124Z,25.30
2023-04-11T01:16:21.955Z,27.92
2023-04-11T01:16:57.523Z,34.85
2023-04-11T01:17:29.963Z,22.52
2023-04-11T01:18:05.919Z,26.58
2023-04-11T01:18:40.450Z,32.17
2023-04-11T01:19:18.593Z,22.88
2023-04-11T01:19:55.737Z,23.95
2023-04-11T01:20:28.515Z,44.20
2023-04-11T01:21:00.817Z,21.83
2023-04-11T01:21:36.481Z,32.63
2023-04-11T01:22:11.418Z,21.17
2023-04-11T01:22:43.633Z,41.88
2023-04-11T01:23:25.891Z,36.15
2023-04-11T01:23:58.642Z,27.10
2023-04-11T01:24:31.097Z,37.30
2023-04-11T01:25:06.303Z,35.15
2023-04-11T01:25:38.530Z,29.85
2023-04-11T01:26:11.634Z,34.35
2023-04-11T01:26:46.399Z,45.33
2023-04-11T01:27:20.858Z,29.08
2023-04-11T01:27:56.658Z,23.67
2023-04-11T01:28:31.514Z,28.90
2023-04-11T01:29:03.914Z,21.88
2023-04-11T01:29:36.490Z,32.72
2023-04-11T01:30:12.798Z,24.70
2023-04-11T01:30:45.189Z,31.70
2023-04-11T01:31:17.706Z,20.75
2023-04-11T01:31:53.922Z,30.60
2023-04-11T01:32:26.628Z,31.17
2023-04-11T01:32:58.932Z,17.35
2023-04-11T01:33:33.811Z,52.55
2023-04-11T01:34:06.451Z,29.50
2023-04-11T01:34:42.924Z,32.15
2023-04-11T01:35:19.077Z,29.58
2023-04-11T01:35:51.328Z,27.63
2023-04-11T01:36:23.880Z,36.47
2023-04-11T01:36:58.953Z,25.88
2023-04-11T01:37:31.443Z,30.00
2023-04-11T01:38:06.617Z,15.63
2023-04-11T01:38:44.069Z,37.17
2023-04-11T01:39:16.620Z,29.92
2023-04-11T01:39:51.951Z,22.02
2023-04-11T01:40:28.097Z,20.08
2023-04-11T01:41:00.820Z,24.23
2023-04-11T01:41:35.045Z,33.53
2023-04-11T01:42:12.001Z,32.35
2023-04-11T01:42:44.882Z,42.28
2023-04-11T01:43:17.133Z,21.73
2023-04-11T01:43:52.175Z,21.75
2023-04-11T01:44:26.899Z,23.58
2023-04-11T01:45:08.125Z,29.33
2023-04-11T01:45:41.072Z,43.63
2023-04-11T01:46:13.779Z,24.63
2023-04-11T01:46:49.583Z,23.58
2023-04-11T01:47:21.822Z,27.27
2023-04-11T01:47:56.170Z,37.10
2023-04-11T01:48:31.484Z,29.15
2023-04-11T01:49:04.110Z,41.00
2023-04-11T01:49:40.585Z,43.53
2023-04-11T01:50:16.114Z,35.17
2023-04-11T01:50:48.401Z,38.22
2023-04-11T01:51:20.835Z,49.72
2023-04-11T01:51:55.958Z,25.05
2023-04-11T01:52:28.157Z,39.95
2023-04-11T01:53:00.588Z,22.13
2023-04-11T01:53:37.555Z,46.88
2023-04-11T01:54:12.315Z,28.33
2023-04-11T01:54:44.476Z,44.83
2023-04-11T01:55:19.460Z,25.50
2023-04-11T01:55:51.652Z,30.98
2023-04-11T01:56:24.823Z,24.85
2023-04-11T01:56:59.573Z,29.85
2023-04-11T01:57:33.095Z,40.72
2023-04-11T01:58:05.258Z,31.77
2023-04-11T01:58:39.975Z,39.25
2023-04-11T01:59:12.297Z,31.65
2023-04-11T01:59:44.488Z,56.33
2023-04-11T02:00:20.567Z,35.42
2023-04-11T02:00:52.739Z,37.17
2023-04-11T02:01:25.820Z,25.92
2023-04-11T02:02:00.827Z,32.55
2023-04-11T02:02:33.138Z,46.05
2023-04-11T02:03:05.706Z,27.50
2023-04-11T02:03:40.675Z,37.15
2023-04-11T02:04:13.208Z,27.88
2023-04-11T02:04:46.939Z,21.10
2023-04-11T02:05:23.954Z,22.02
2023-04-11T02:05:56.546Z,24.02
2023-04-11T02:06:28.762Z,27.38
2023-04-11T02:07:03.478Z,19.42
2023-04-11T02:07:35.856Z,28.73
2023-04-11T02:08:08.009Z,18.30
2023-04-11T02:08:42.822Z,47.20
2023-04-11T02:09:17.599Z,18.90
2023-04-11T02:09:49.769Z,23.25
2023-04-11T02:10:24.562Z,20.85
2023-04-11T02:10:56.792Z,40.60
2023-04-11T02:11:29.051Z,37.97
2023-04-11T02:12:03.878Z,27.17
2023-04-11T02:12:36.099Z,38.95
2023-04-11T02:13:08.384Z,29.65
2023-04-11T02:13:43.182Z,31.02
2023-04-11T02:14:20.670Z,38.78
2023-04-11T02:14:53.430Z,23.50
2023-04-11T02:15:28.251Z,51.78
2023-04-11T02:16:06.511Z,34.58
2023-04-11T02:16:50.416Z,38.10
2023-04-11T02:17:26.048Z,35.17
2023-04-11T02:18:00.544Z,35.83
2023-04-11T02:18:32.906Z,35.95
2023-04-11T02:19:07.621Z,34.00
2023-04-11T02:19:41.436Z,37.53
2023-04-11T02:20:14.608Z,27.95
2023-04-11T02:20:50.359Z,37.30
2023-04-11T02:21:22.751Z,25.35
2023-04-11T02:21:56.081Z,15.95
2023-04-11T02:22:31.054Z,26.83
2023-04-11T02:23:04.608Z,26.85
2023-04-11T02:23:36.892Z,52.00
2023-04-11T02:24:11.720Z,41.08
2023-04-11T02:24:47.720Z,55.45
2023-04-11T02:25:19.912Z,59.33
2023-04-11T02:25:52.084Z,60.80
2023-04-11T02:26:27.029Z,22.73
2023-04-11T02:27:01.979Z,46.55
2023-04-11T02:27:34.325Z,48.95
2023-04-11T02:28:08.079Z,22.33
2023-04-11T02:28:43.197Z,38.55
2023-04-11T02:29:21.194Z,26.42
2023-04-11T02:29:55.196Z,35.75
2023-04-11T02:30:30.084Z,26.85
2023-04-11T02:31:02.853Z,40.42
2023-04-11T02:31:35.957Z,51.13
2023-04-11T02:32:10.886Z,28.23
2023-04-11T02:32:44.019Z,37.50
2023-04-11T02:33:16.313Z,30.48
2023-04-11T02:33:52.239Z,47.40
2023-04-11T02:34:24.475Z,26.45
2023-04-11T02:34:56.697Z,31.30
2023-04-11T02:35:31.537Z,51.08
2023-04-11T02:36:06.379Z,27.98
2023-04-11T02:36:39.698Z,41.22
2023-04-11T02:37:14.443Z,23.90
2023-04-11T02:37:46.766Z,46.95
2023-04-11T02:38:19.139Z,22.75
2023-04-11T02:38:54.071Z,17.83
2023-04-11T02:39:26.596Z,22.40
2023-04-11T02:40:04.313Z,29.77
2023-04-11T02:40:36.504Z,68.95
2023-04-11T02:41:11.314Z,28.92
2023-04-11T02:41:43.573Z,26.40
2023-04-11T02:42:16.733Z,35.63
2023-04-11T02:42:49.040Z,22.13
2023-04-11T02:43:25.117Z,23.23
2023-04-11T02:43:59.086Z,29.85
2023-04-11T02:44:31.382Z,76.47
2023-04-11T02:45:08.440Z,27.73
2023-04-11T02:45:41.361Z,38.65
2023-04-11T02:46:13.871Z,25.73
2023-04-11T02:46:51.782Z,23.98
2023-04-11T02:47:24.139Z,25.42
2023-04-11T02:47:56.638Z,26.33
2023-04-11T02:48:31.500Z,44.72
2023-04-11T02:49:04.008Z,50.92
2023-04-11T02:49:36.549Z,56.10
2023-04-11T02:50:12.960Z,31.58
2023-04-11T02:50:51.067Z,27.02
2023-04-11T02:51:23.683Z,30.20
2023-04-11T02:51:58.427Z,29.38
2023-04-11T02:52:30.852Z,44.55
2023-04-11T02:53:03.033Z,33.78
2023-04-11T02:53:38.092Z,33.42
2023-04-11T02:54:10.489Z,18.42
2023-04-11T02:54:43.621Z,48.97
2023-04-11T02:55:18.646Z,40.67
2023-04-11T02:55:53.443Z,30.10
2023-04-11T02:56:25.753Z,48.00
2023-04-11T02:57:02.251Z,24.88
2023-04-11T02:57:37.341Z,42.97
2023-04-11T02:58:17.952Z,21.50
2023-04-11T02:58:52.820Z,31.85
2023-04-11T02:59:29.379Z,29.88
2023-04-11T03:00:01.805Z,24.48
2023-04-11T03:00:44.674Z,39.45
2023-04-11T03:01:21.753Z,65.13
2023-04-11T03:02:00.515Z,40.40
2023-04-11T03:02:35.178Z,45.10
2023-04-11T03:03:10.220Z,56.50
2023-04-11T03:03:46.536Z,29.70
2023-04-11T03:04:19.514Z,37.83
2023-04-11T03:05:20.668Z,50.13
2023-04-11T03:05:57.180Z,44.85
2023-04-11T03:06:30.148Z,44.28
2023-04-11T03:07:07.952Z,28.42
2023-04-11T03:07:40.791Z,36.88
2023-04-11T03:08:14.761Z,35.72
2023-04-11T03:08:57.156Z,33.80
2023-04-11T03:09:29.595Z,29.65
2023-04-11T03:10:01.811Z,48.38
2023-04-11T03:10:39.283Z,39.58
2023-04-11T03:11:14.870Z,35.75
2023-04-11T03:11:47.553Z,25.15
2023-04-11T03:12:23.078Z,54.65
2023-04-11T03:13:01.102Z,26.52
2023-04-11T03:13:37.326Z,46.65
2023-04-11T03:14:09.623Z,25.90
2023-04-11T03:14:41.912Z,55.72
2023-04-11T03:15:15.689Z,24.73
2023-04-11T03:15:50.678Z,39.10
2023-04-11T03:16:23.570Z,39.90
2023-04-11T03:16:56.240Z,37.58
2023-04-11T03:17:31.727Z,43.70
2023-04-11T03:18:04.367Z,37.92
2023-04-11T03:18:37.262Z,41.13
2023-04-11T03:19:17.585Z,46.28
2023-04-11T03:19:49.775Z,41.22
2023-04-11T03:20:22.425Z,41.65
2023-04-11T03:21:00.696Z,56.42
2023-04-11T03:21:33.602Z,64.30
2023-04-11T03:22:06.269Z,47.55
2023-04-11T03:22:41.198Z,71.10
2023-04-11T03:23:13.403Z,47.70
2023-04-11T03:23:45.560Z,45.80
2023-04-11T03:24:19.489Z,77.28
2023-04-11T03:24:54.321Z,44.25
2023-04-11T03:25:28.449Z,63.92
2023-04-11T03:26:04.046Z,59.22
2023-04-11T03:26:38.864Z,75.40
2023-04-11T03:27:15.873Z,83.97
2023-04-11T03:27:49.938Z,84.55
2023-04-11T03:28:24.668Z,62.33
2023-04-11T03:28:59.231Z,85.25
2023-04-11T03:29:35.449Z,78.82
2023-04-11T03:30:22.162Z,69.07
2023-04-11T03:30:55.387Z,58.28
2023-04-11T03:31:31.879Z,78.32
2023-04-11T03:32:09.986Z,51.67
2023-04-11T03:32:43.439Z,74.47
2023-04-11T03:33:15.685Z,78.38
2023-04-11T03:33:50.556Z,88.40
2023-04-11T03:34:23.639Z,71.57
2023-04-11T03:34:57.387Z,103.45
2023-04-11T03:35:32.339Z,88.55
2023-04-11T03:36:08.883Z,81.82
2023-04-11T03:36:41.301Z,75.07
2023-04-11T03:37:13.557Z,81.30
2023-04-11T03:37:48.586Z,66.72
2023-04-11T03:38:21.931Z,79.95
2023-04-11T03:38:54.325Z,62.38
2023-04-11T03:39:29.258Z,94.03
2023-04-11T03:40:08.521Z,61.00
2023-04-11T03:40:45.500Z,101.60
2023-04-11T03:41:23.619Z,76.15
2023-04-11T03:41:56.806Z,85.72
2023-04-11T03:42:32.173Z,67.68
2023-04-11T03:43:06.778Z,48.50
2023-04-11T03:43:43.555Z,86.93
2023-04-11T03:44:15.965Z,83.80
2023-04-11T03:44:49.379Z,75.38
2023-04-11T03:45:24.621Z,84.38
2023-04-11T03:45:58.891Z,55.05
2023-04-11T03:46:53.961Z,53.97
2023-04-11T03:47:26.462Z,65.50
2023-04-11T03:47:59.296Z,66.50
2023-04-11T03:48:40.883Z,73.82
2023-04-11T03:49:14.770Z,51.10
2023-04-11T03:49:47.133Z,77.38
2023-04-11T03:50:23.546Z,41.42
2023-04-11T03:51:01.879Z,63.35
2023-04-11T03:51:45.324Z,54.25
2023-04-11T03:52:17.832Z,66.28
2023-04-11T03:52:52.675Z,58.72
2023-04-11T03:53:27.610Z,56.47
2023-04-11T03:54:04.408Z,35.28
2023-04-11T03:54:41.646Z,66.28
2023-04-11T03:55:18.749Z,61.25
2023-04-11T03:55:52.958Z,71.18
2023-04-11T03:56:30.663Z,59.15
2023-04-11T03:57:05.424Z,56.33
2023-04-11T03:57:40.215Z,61.75
2023-04-11T03:58:18.627Z,58.72
2023-04-11T03:58:53.749Z,53.30
2023-04-11T03:59:30.146Z,42.85
2023-04-11T04:00:11.263Z,92.35
2023-04-11T04:00:59.216Z,68.97
2023-04-11T04:01:32.724Z,71.10
2023-04-11T04:02:11.561Z,51.28
2023-04-11T04:02:50.144Z,66.25
2023-04-11T04:03:25.311Z,97.25
2023-04-11T04:04:01.070Z,72.47
2023-04-11T04:04:34.749Z,76.28
2023-04-11T04:05:19.105Z,64.03
2023-04-11T04:05:51.463Z,94.85
2023-04-11T04:06:23.967Z,64.93
2023-04-11T04:06:58.744Z,66.75
2023-04-11T04:07:38.670Z,74.32
2023-04-11T04:08:23.405Z,43.38
2023-04-11T04:08:59.774Z,46.53
2023-04-11T04:09:34.305Z,71.70
2023-04-11T04:10:10.586Z,66.10
2023-04-11T04:10:43.960Z,85.63
2023-04-11T04:11:16.158Z,35.03
2023-04-11T04:11:54.201Z,49.05
2023-04-11T04:12:34.664Z,87.75
2023-04-11T04:13:18.009Z,108.00
2023-04-11T04:14:16.718Z,88.05
2023-04-11T04:14:52.137Z,105.57
2023-04-11T04:15:24.383Z,100.70
2023-04-11T04:15:58.484Z,76.82
2023-04-11T04:16:35.420Z,116.07
2023-04-11T04:17:10.264Z,116.10
2023-04-11T04:17:44.062Z,93.00
2023-04-11T04:18:25.133Z,113.90
2023-04-11T04:18:57.506Z,81.78
2023-04-11T04:19:31.060Z,56.58
2023-04-11T04:20:08.134Z,112.90
2023-04-11T04:20:42.673Z,92.60
2023-04-11T04:21:16.954Z,112.43
2023-04-11T04:21:52.409Z,59.42
2023-04-11T04:22:26.835Z,78.75
2023-04-11T04:23:01.390Z,91.03
2023-04-11T04:23:55.392Z,74.50
2023-04-11T04:25:09.689Z,87.80
2023-04-11T04:25:45.814Z,100.88
2023-04-11T04:26:18.482Z,100.03
2023-04-11T04:27:11.795Z,57.08
2023-04-11T04:27:54.252Z,80.75
2023-04-11T04:28:31.228Z,105.80
2023-04-11T04:29:06.195Z,80.07
2023-04-11T04:29:59.305Z,167.27
2023-04-11T04:30:41.687Z,125.47
2023-04-11T04:31:25.866Z,88.25
2023-04-11T04:32:11.348Z,80.50
2023-04-11T04:32:54.940Z,88.40
2023-04-11T04:33:28.784Z,73.40
2023-04-11T04:34:08.824Z,89.85
2023-04-11T04:34:47.048Z,80.65
2023-04-11T04:35:25.729Z,85.22
2023-04-11T04:36:00.324Z,72.22
2023-04-11T04:36:46.489Z,118.53
2023-04-11T04:37:22.093Z,108.75
2023-04-11T04:37:57.926Z,64.80
2023-04-11T04:38:46.040Z,85.90
2023-04-11T04:39:19.656Z,66.40
2023-04-11T04:40:02.374Z,93.60
2023-04-11T04:40:40.061Z,94.65
2023-04-11T04:41:15.889Z,101.93
2023-04-11T04:42:01.617Z,91.85
2023-04-11T04:42:43.460Z,106.85
2023-04-11T04:43:18.554Z,106.03
2023-04-11T04:44:04.619Z,82.85
2023-04-11T04:44:47.682Z,78.07
2023-04-11T04:45:25.476Z,100.05
2023-04-11T04:45:57.910Z,102.25
2023-04-11T04:46:37.213Z,115.95
2023-04-11T04:47:15.946Z,60.60
2023-04-11T04:47:48.203Z,62.03
2023-04-11T04:48:20.809Z,58.15
2023-04-11T04:48:55.573Z,71.88
2023-04-11T04:49:29.352Z,129.20
2023-04-11T04:50:03.118Z,114.38
2023-04-11T04:50:39.132Z,128.75
2023-04-11T04:51:11.487Z,101.10
2023-04-11T04:51:44.810Z,97.80
2023-04-11T04:52:19.771Z,92.93
2023-04-11T04:52:52.088Z,78.28
2023-04-11T04:53:24.387Z,97.07
2023-04-11T04:54:04.990Z,139.95
2023-04-11T04:54:38.413Z,151.10
2023-04-11T04:55:10.784Z,94.85
2023-04-11T04:55:46.565Z,83.80
2023-04-11T04:56:20.618Z,114.30
2023-04-11T04:56:54.473Z,170.48
2023-04-11T04:57:32.234Z,103.38
2023-04-11T04:58:10.763Z,97.35
2023-04-11T04:58:43.039Z,138.77
2023-04-11T04:59:20.994Z,121.75
2023-04-11T05:00:01.618Z,91.22
2023-04-11T05:00:36.861Z,124.45
2023-04-11T05:01:13.965Z,137.20
2023-04-11T05:01:46.311Z,61.28
2023-04-11T05:02:21.946Z,87.53
2023-04-11T05:02:55.476Z,37.08
2023-04-11T05:03:34.904Z,90.07
2023-04-11T05:04:14.906Z,42.67
2023-04-11T05:05:04.197Z,55.67
2023-04-11T05:05:36.659Z,67.07
2023-04-11T05:06:12.525Z,38.58
2023-04-11T05:06:47.779Z,64.03
2023-04-11T05:07:21.055Z,66.30
2023-04-11T05:07:59.169Z,44.70
2023-04-11T05:08:31.807Z,57.30
2023-04-11T05:09:06.798Z,55.45
2023-04-11T05:09:41.954Z,58.03
2023-04-11T05:10:27.878Z,54.05
2023-04-11T05:11:00.118Z,72.93
2023-04-11T05:11:35.944Z,58.88
2023-04-11T05:12:09.420Z,66.32
2023-04-11T05:12:44.126Z,77.70
2023-04-11T05:13:23.160Z,75.53
2023-04-11T05:13:56.083Z,61.85
2023-04-11T05:14:28.529Z,47.28
2023-04-11T05:15:03.403Z,81.85
2023-04-11T05:15:37.040Z,51.10
2023-04-11T05:16:09.974Z,60.47
2023-04-11T05:16:45.154Z,68.10
2023-04-11T05:17:17.905Z,91.43
2023-04-11T05:17:50.636Z,94.25
2023-04-11T05:18:26.061Z,90.05
2023-04-11T05:18:58.266Z,82.93
2023-04-11T05:19:32.833Z,75.28
2023-04-11T05:20:09.892Z,81.95
2023-04-11T05:20:43.074Z,80.28
2023-04-11T05:21:19.017Z,97.47
2023-04-11T05:21:57.667Z,75.97
2023-04-11T05:22:29.858Z,66.40
2023-04-11T05:23:02.406Z,61.35
2023-04-11T05:23:37.361Z,73.93
2023-04-11T05:24:10.820Z,66.03
2023-04-11T05:24:46.252Z,82.57
2023-04-11T05:25:21.792Z,96.80
2023-04-11T05:25:55.787Z,95.25
2023-04-11T05:26:31.831Z,80.72
2023-04-11T05:27:04.304Z,68.43
2023-04-11T05:27:36.505Z,93.93
2023-04-11T05:28:11.481Z,86.45
2023-04-11T05:28:46.355Z,69.22
2023-04-11T05:29:22.926Z,99.20
2023-04-11T05:29:57.736Z,114.35
2023-04-11T05:30:30.337Z,82.60
2023-04-11T05:31:02.726Z,86.07
2023-04-11T05:31:37.976Z,103.00
2023-04-11T05:32:10.619Z,66.97
2023-04-11T05:32:43.376Z,84.90
2023-04-11T05:33:18.759Z,85.68
2023-04-11T05:33:52.036Z,79.15
2023-04-11T05:34:27.010Z,92.65
2023-04-11T05:35:02.450Z,89.18
2023-04-11T05:35:51.681Z,51.22
2023-04-11T05:36:24.154Z,83.95
2023-04-11T05:36:56.348Z,105.00
2023-04-11T05:37:31.528Z,97.63
2023-04-11T05:38:05.633Z,83.53
2023-04-11T05:38:37.995Z,78.97
2023-04-11T05:39:13.091Z,94.53
2023-04-11T05:39:45.389Z,78.13
2023-04-11T05:40:17.726Z,128.15
2023-04-11T05:40:52.604Z,138.65
2023-04-11T05:41:25.114Z,136.48
2023-04-11T05:42:00.039Z,81.25
2023-04-11T05:42:34.735Z,132.27
2023-04-11T05:43:07.074Z,88.75
2023-04-11T05:43:44.397Z,88.30
2023-04-11T05:44:19.347Z,94.38
2023-04-11T05:44:57.006Z,125.53
2023-04-11T05:45:29.443Z,122.50
2023-04-11T05:46:04.589Z,79.75
2023-04-11T05:46:37.549Z,82.15
2023-04-11T05:47:11.691Z,81.95
2023-04-11T05:47:46.940Z,83.80
2023-04-11T05:48:20.058Z,71.32
2023-04-11T05:49:00.659Z,88.63
2023-04-11T05:49:32.941Z,75.55
2023-04-11T05:50:08.601Z,65.25
2023-04-11T05:50:44.208Z,64.07
2023-04-11T05:51:16.414Z,69.35
2023-04-11T05:51:48.634Z,51.90
2023-04-11T05:52:23.526Z,67.80
2023-04-11T05:52:56.278Z,70.60
2023-04-11T05:53:29.324Z,89.70
2023-04-11T05:54:06.408Z,57.65
2023-04-11T05:54:38.764Z,91.63
2023-04-11T05:55:11.976Z,59.67
2023-04-11T05:55:46.908Z,53.00
2023-04-11T05:56:21.376Z,63.20
2023-04-11T05:56:56.753Z,98.07
2023-04-11T05:57:28.982Z,63.22
2023-04-11T05:58:01.224Z,62.65
2023-04-11T05:58:37.845Z,79.07
2023-04-11T05:59:10.076Z,55.70
2023-04-11T05:59:44.888Z,61.22
2023-04-11T06:00:20.979Z,62.22
2023-04-11T06:00:54.347Z,64.63
2023-04-11T06:01:30.444Z,59.30
2023-04-11T06:02:03.031Z,54.60
2023-04-11T06:02:37.926Z,61.38
2023-04-11T06:03:10.407Z,54.70
2023-04-11T06:03:45.922Z,57.97
2023-04-11T06:04:18.506Z,92.38
2023-04-11T06:04:53.556Z,66.15
2023-04-11T06:05:27.006Z,52.38
2023-04-11T06:06:00.818Z,41.67
2023-04-11T06:06:36.300Z,68.88
2023-04-11T06:07:08.735Z,41.25
2023-04-11T06:07:41.593Z,50.75
2023-04-11T06:08:19.583Z,46.63
2023-04-11T06:08:51.890Z,44.17
2023-04-11T06:09:24.141Z,82.32
2023-04-11T06:09:59.240Z,87.50
2023-04-11T06:10:32.060Z,48.95
2023-04-11T06:11:07.196Z,54.28
2023-04-11T06:11:39.484Z,75.78
2023-04-11T06:12:14.280Z,71.00
2023-04-11T06:12:46.612Z,43.00
2023-04-11T06:13:18.916Z,72.20
2023-04-11T06:13:53.870Z,62.03
2023-04-11T06:14:26.259Z,76.55
2023-04-11T06:15:01.948Z,51.40
2023-04-11T06:15:36.964Z,56.72
2023-04-11T06:16:09.901Z,46.45
2023-04-11T06:16:42.736Z,64.70
2023-04-11T06:17:17.550Z,59.67
2023-04-11T06:17:50.147Z,58.80
2023-04-11T06:18:22.518Z,59.97
2023-04-11T06:19:00.378Z,74.80
2023-04-11T06:19:32.636Z,55.25
2023-04-11T06:20:06.358Z,66.18
2023-04-11T06:20:41.249Z,70.15
2023-04-11T06:21:13.537Z,73.40
2023-04-11T06:21:45.985Z,62.35
2023-04-11T06:22:20.859Z,76.10
2023-04-11T06:22:53.140Z,54.13
2023-04-11T06:23:27.961Z,95.25
2023-04-11T06:24:09.754Z,75.45
2023-04-11T06:24:42.013Z,99.75
2023-04-11T06:25:17.210Z,121.22
2023-04-11T06:25:49.434Z,86.10
2023-04-11T06:26:24.176Z,87.25
2023-04-11T06:26:57.122Z,74.80
2023-04-11T06:27:29.386Z,51.13
2023-04-11T06:28:04.159Z,78.47
2023-04-11T06:28:36.374Z,61.78
2023-04-11T06:29:08.567Z,67.80
2023-04-11T06:29:46.590Z,57.47
2023-04-11T06:30:24.499Z,59.13
2023-04-11T06:31:01.716Z,59.25
2023-04-11T06:31:34.283Z,62.47
2023-04-11T06:32:06.760Z,76.07
2023-04-11T06:32:41.840Z,59.33
2023-04-11T06:33:14.122Z,54.83
2023-04-11T06:33:46.430Z,59.22
2023-04-11T06:34:21.439Z,47.08
2023-04-11T06:34:53.903Z,66.25
2023-04-11T06:35:28.885Z,83.40
2023-04-11T06:36:01.814Z,87.25
2023-04-11T06:36:34.891Z,39.83
2023-04-11T06:37:10.010Z,61.28
2023-04-11T06:37:42.648Z,61.47
2023-04-11T06:38:14.991Z,83.63
2023-04-11T06:38:49.757Z,123.05
2023-04-11T06:39:22.223Z,83.40
2023-04-11T06:39:54.518Z,66.03
2023-04-11T06:40:29.561Z,74.07
2023-04-11T06:41:01.859Z,74.15
2023-04-11T06:41:34.063Z,73.45
2023-04-11T06:42:08.972Z,85.53
2023-04-11T06:42:42.655Z,86.25
2023-04-11T06:43:18.171Z,80.65
2023-04-11T06:43:50.464Z,75.13
2023-04-11T06:44:22.711Z,64.03
2023-04-11T06:44:57.556Z,69.80
2023-04-11T06:45:32.364Z,60.42
2023-04-11T06:46:05.090Z,63.67
2023-04-11T06:46:40.053Z,43.25
2023-04-11T06:47:12.761Z,59.10
2023-04-11T06:47:47.533Z,44.40
2023-04-11T06:48:21.168Z,70.72
2023-04-11T06:48:53.379Z,77.05
2023-04-11T06:49:28.522Z,96.82
2023-04-11T06:50:00.772Z,74.03
2023-04-11T06:50:35.809Z,62.25
2023-04-11T06:51:09.311Z,68.90
2023-04-11T06:51:41.504Z,91.22
2023-04-11T06:52:16.451Z,96.57
2023-04-11T06:52:48.658Z,75.95
2023-04-11T06:53:23.456Z,73.57
2023-04-11T06:53:56.198Z,100.88
2023-04-11T06:54:28.608Z,122.03
2023-04-11T06:55:07.345Z,136.52
2023-04-11T06:55:39.677Z,80.53
2023-04-11T06:56:14.630Z,78.25
2023-04-11T06:56:50.862Z,94.68
2023-04-11T06:57:24.536Z,66.70
2023-04-11T06:57:57.087Z,67.00
2023-04-11T06:58:31.968Z,87.82
2023-04-11T06:59:04.165Z,45.03
2023-04-11T06:59:36.406Z,57.45
2023-04-11T07:00:12.747Z,68.72
2023-04-11T07:00:47.543Z,63.45
2023-04-11T07:01:20.876Z,63.67
2023-04-11T07:01:55.893Z,68.95
2023-04-11T07:02:28.210Z,61.88
2023-04-11T07:03:08.046Z,67.22
2023-04-11T07:03:41.034Z,65.30
2023-04-11T07:04:13.619Z,57.85
2023-04-11T07:04:51.762Z,60.58
2023-04-11T07:05:24.053Z,100.65
2023-04-11T07:05:56.244Z,83.28
2023-04-11T07:06:31.848Z,80.57
2023-04-11T07:07:04.669Z,109.25
2023-04-11T07:07:40.193Z,115.53
2023-04-11T07:08:12.368Z,95.38
2023-04-11T07:08:44.645Z,101.05
2023-04-11T07:09:19.547Z,104.78
2023-04-11T07:09:51.718Z,60.55
2023-04-11T07:10:25.212Z,59.25
2023-04-11T07:11:00.005Z,75.45
2023-04-11T07:11:33.625Z,48.38
2023-04-11T07:12:06.479Z,65.18
2023-04-11T07:12:41.298Z,87.45
2023-04-11T07:13:13.595Z,55.75
2023-04-11T07:13:45.748Z,82.18
2023-04-11T07:14:20.566Z,79.45
2023-04-11T07:14:52.998Z,65.28
2023-04-11T07:15:27.978Z,52.03
2023-04-11T07:16:02.793Z,85.07
2023-04-11T07:16:37.771Z,70.63
2023-04-11T07:17:10.029Z,72.35
2023-04-11T07:17:45.183Z,52.63
2023-04-11T07:18:17.566Z,67.50
2023-04-11T07:18:49.828Z,70.25
2023-04-11T07:19:26.869Z,118.43
2023-04-11T07:19:59.142Z,57.42
2023-04-11T07:20:33.164Z,77.15
2023-04-11T07:21:08.277Z,56.72
2023-04-11T07:21:40.529Z,64.38
2023-04-11T07:22:15.280Z,72.43
2023-04-11T07:22:47.541Z,55.25
2023-04-11T07:23:21.320Z,82.38
2023-04-11T07:23:58.084Z,73.90
2023-04-11T07:24:30.810Z,123.88
2023-04-11T07:25:03.340Z,98.05
2023-04-11T07:25:39.447Z,83.18
2023-04-11T07:26:12.031Z,77.82
2023-04-11T07:26:46.733Z,71.15
2023-04-11T07:27:23.588Z,61.38
2023-04-11T07:27:55.897Z,87.40
2023-04-11T07:28:31.428Z,62.80